Dauntless Aviation
Airports Europe United Kingdom
EGLC
LCY

London City

London, UNITED KINGDOM

Airport Info
Suggest Updated Information for this Airport

Location

Latitude / Longitude: 51°30'18"N / 0°3'12"E
  51°30.3'N / 0°3.21'E
  51.5050 / 0.0535

Nearby radio navigation aids

LCY CITY NDB on field.

Runway Information

Runway 10 /28

Dimensions: 4948 x 98 ft.
Surface: ASP
 
Runway 10
Runway 28
Latitude: 51.505528 51.504922
Longitude: 0.045753 0.064953
Elevation: 16 ft. 16 ft.
Runway true heading: 91.1 271.1
 

Instrument Procedures

  Aerodrome Chart
  Aircraft Parking/Docking Chart
  Control Zone and Control Area Chart

STARs (Standard Terminal Arrivals)

  Standard Instrument Arrival Coding Tables Rwy 09/27 JACKO 1L/ 1M
  Standard Instrument Arrival Coding Tables Rwy 09/27 GODLU 1G/ 1H
  Standard Instrument Arrival Coding Tables Rwy 09/27 GODLU 1J/ 1K/ 1L
  RNAV1 (DME/DME or GNSS) Transition Arrival Chart - Instrument Rwy 27 LAVNO 1G 1J
  RNAV1 (DME/DME or GNSS) Transition Arrival Chart - Instrument Rwy 09 ODLEG 1G 1J
  RNAV5 (VOR/DME/ DME/DME or GNSS) STAR - Instrument Rwy 09/27 JACKO 1A 1B 1D
  RNAV5 (VOR/DME/ DME/DME or GNSS) STAR - Instrument Rwy 09/27 GODLU 1A 1C 1D 1F
  RNAV5 (VOR/DME/ DME/DME or GNSS) STAR - Instrument Rwy 09/27 JACKO 1H
  RNAV5 (VOR/DME/ DME/DME or GNSS) STAR - Instrument Rwy 09/27 JACKO 1L 1M
  RNAV5 (VOR/DME/ DME/DME or GNSS) STAR - Instrument Rwy 09/27 GODLU 1G 1H
  RNAV5 (VOR/DME/ DME/DME or GNSS) STAR - Instrument Rwy 09/27 GODLU 1J 1K 1L
  Standard Instrument Arrival Coding Tables Rwy 09/27 JACKO 1A/ 1B/ 1D
  Standard Instrument Arrival Coding Tables Rwy 09/27 GODLU 1A/ 1C/ 1D/ 1F
  Standard Instrument Arrival Coding Tables Rwy 09/27 JACKO 1H

IAPs (Instrument Approach Procedures)

  ILS (5.5°GP) /DME/NDB (L) Rwy 09 (Aircraft CAT A/B/C)
  LOC/DME/NDB (L) Rwy 09
  LOC/DME/NDB (L) Rwy 27 (Aircraft CAT A/B/C)
  Visual Approach Profile Rwy 27
  Visual Approach Profile Rwy 09
  ILS (5.5°GP) /DME/NDB (L) Rwy 27 (Aircraft CAT A/B/C)
  Aerodrome Information (Textual)
  Transition Coding Tables Rwy 27 LAVNO 1G/ 1J
  Transition Coding Tables Rwy 09 ODLEG 1G 1J
  RNAV Hold Coding Tables GODLU/ OKVAP/ JACKO/ ROPMU
  ATC Surveillance Minimum Altitude Chart

Departure Procedures

  Standard Instrument Departure Coding Tables Rwy 09 BPK 1H/ CPT 1H
  Standard Instrument Departure Coding Tables Rwy 09 CLN 1H/ Rwy 27 CLN 1A
  SID - Instrument (SID) Rwy 09/27 DVR 5T 5U LYD 5T 5U
  SID - Instrument (SID) Rwy 09/27 CLN 7T 7U
  SID - Instrument (SID) Rwy 09/27 BPK 5T 5U CPT 6T 6U
  RNAV1 (DME/DME or GNSS) SID - Instrument (SID) Rwy 27 BPK 1A CPT 1A
  RNAV1 (DME/DME or GNSS) SID - Instrument (SID) Rwy 09 BPK 1H CPT 1H
  RNAV1 (DME/DME or GNSS) SID - Instrument (SID) Rwy 09/27 CLN 1A 1H
  Standard Instrument Departure Coding Tables Rwy 27 BPK 1A/ CPT 1A
  RNAV1 (DME/DME or GNSS) SID - Instrument (SID) Rwy 09/27 EKNIV 1A 1H
  Standard Instrument Departure Coding Tables Rwy 09 EKNIV 1H/ Rwy 27 EKNIV 1A
Satellite photo at:
Airport distance calculator
From:
Weather Reports

METAR

EGLC

EGLC 092250Z AUTO 23007KT 7000 SCT012 12/10 Q1023
EGLL
18.9nm SW
EGLL 092250Z AUTO 20007KT 6000 FEW013 11/10 Q1023 TEMPO BKN010
EGSS
23.5nm N
EGSS 092250Z AUTO 22011KT 5000 HZ OVC006 10/10 Q1023
EGKK
23.8nm S
EGKK 092250Z 22004KT 180V250 6000 SCT007 10/09 Q1024
EGMC
24.4nm NE
EGMC 092250Z 22008KT 9999 SCT010 10/08 Q1024
EGGW
26.8nm NW
EGGW 092250Z AUTO 20009KT 150V220 5000 BR OVC005 10/10 Q1022

TAF

EGWU
17.8nm W
TAF EGWU 091958Z 0921/1015 22010KT 7000 HZ BKN006 TEMPO 0921/1010 3000 -RADZ BR BKN003 BECMG 1010/1013 9999 NSW SCT015 TEMPO 1013/1015 4000 -RADZ BKN005
EGLL
18.9nm SW
TAF AMD EGLL 091807Z 0918/1024 21008KT 7000 FEW006 PROB40 TEMPO 0919/1001 BKN006 BECMG 1001/1004 -DZ BKN006 TEMPO 1001/1010 3000 -RADZ BR BKN004 TEMPO 1010/1015 9999 NSW BKN010 TEMPO 1015/1021 3000 RA BKN004 BECMG 1020/1023 33010KT 9999 NSW FEW006
EGSS
23.5nm N
TAF AMD EGSS 091952Z 0919/1024 22010KT 9999 FEW009 BECMG 0920/0923 6000 BKN006 TEMPO 0920/1002 3000 BR BKN003 BECMG 1002/1004 3000 BR BKN003 PROB40 1004/1011 0300 FG BKN001 BECMG 1011/1014 8000 NSW BKN025 TEMPO 1014/1022 3000 RA BKN006 PROB30 TEMPO 1018/1022 1400 +RA BKN003 BECMG 1021/1024 30006KT 9999
EGKK
23.8nm S
TAF COR EGKK 091823Z 0918/1024 19005KT 5000 BR FEW002 SCT005 TEMPO 0918/1002 1500 BKN002 PROB40 0919/0922 1000 BECMG 1002/1005 BKN005 TEMPO 1002/1015 4000 -RADZ BKN003 PROB40 TEMPO 1015/1022 RADZ BKN010 BECMG 1021/1023 9999 NSW FEW030
EGMC
24.4nm NE
TAF EGMC 092001Z 0921/1006 21009KT 9999 FEW012 BECMG 0921/0924 BKN010 TEMPO 0921/1006 4000 BR BKN005
EGGW
26.8nm NW
TAF AMD EGGW 091950Z 0919/1018 20009KT 6000 BKN006 TEMPO 0919/0924 3000 BR BKN003 BECMG 1000/1003 2000 BR BKN002 PROB40 1003/1011 0200 FG VV/// BECMG 1011/1014 8000 NSW BKN025 TEMPO 1014/1018 3000 RA BKN003
Safelog

 

Dauntless Aviation

© 2007-2016 Dauntless Aviation, all rights reserved
Information provided via PilotNav comes from a variety of official and unofficial data sources. As errors are possible, do not use PilotNav for primary flight planning purposes. Verify any information that you receive via PilotNav with current and canonical charts and other official documents. The material in this database is subject to database copyrights held by Dauntless Aviation and may not be copied without the express permission of Dauntless Aviation - licenses for use of part of all of this data are available for purchase; enquire via the Dauntless Aviation helpdesk. A number of mechanisms and markers exist in the database to protect against and identify infringement / copyright. Automated queries against this website are stictly prohibited, and all activity is logged and analyzed.